sensor_id;sensor_type;location;lat;lon;timestamp;pressure;altitude;pressure_sealevel;temperature;humidity
13594;BME280;6449;47.666;9.160;2022-08-03T00:02:52;97039.47;;;21.86;77.09
13594;BME280;6449;47.666;9.160;2022-08-03T00:07:46;97034.59;;;21.75;78.00
13594;BME280;6449;47.666;9.160;2022-08-03T00:12:40;97039.44;;;21.42;79.44
13594;BME280;6449;47.666;9.160;2022-08-03T00:17:33;97036.69;;;21.50;79.69
13594;BME280;6449;47.666;9.160;2022-08-03T00:22:46;97032.91;;;21.44;80.46
13594;BME280;6449;47.666;9.160;2022-08-03T00:27:39;97026.00;;;21.50;80.58
13594;BME280;6449;47.666;9.160;2022-08-03T00:32:32;97021.72;;;21.64;79.95
13594;BME280;6449;47.666;9.160;2022-08-03T00:37:26;97021.22;;;21.60;79.44
13594;BME280;6449;47.666;9.160;2022-08-03T00:42:34;97013.25;;;21.00;83.00
13594;BME280;6449;47.666;9.160;2022-08-03T00:47:27;97022.50;;;21.12;84.01
13594;BME280;6449;47.666;9.160;2022-08-03T00:52:20;97014.03;;;21.46;82.38
13594;BME280;6449;47.666;9.160;2022-08-03T00:57:14;97019.66;;;21.51;81.41
13594;BME280;6449;47.666;9.160;2022-08-03T01:02:08;97018.19;;;21.49;80.83
13594;BME280;6449;47.666;9.160;2022-08-03T01:07:11;97009.09;;;21.20;82.46
13594;BME280;6449;47.666;9.160;2022-08-03T01:12:20;97016.91;;;21.22;83.82
13594;BME280;6449;47.666;9.160;2022-08-03T01:17:22;97018.81;;;21.13;84.15
13594;BME280;6449;47.666;9.160;2022-08-03T01:22:43;97019.19;;;21.25;84.07
13594;BME280;6449;47.666;9.160;2022-08-03T01:27:53;97017.94;;;20.98;84.89
13594;BME280;6449;47.666;9.160;2022-08-03T01:32:58;97010.22;;;21.03;85.05
13594;BME280;6449;47.666;9.160;2022-08-03T01:38:01;97014.19;;;21.07;84.91
13594;BME280;6449;47.666;9.160;2022-08-03T01:42:58;97007.69;;;20.86;86.08
13594;BME280;6449;47.666;9.160;2022-08-03T01:47:55;97011.38;;;20.62;86.76
13594;BME280;6449;47.666;9.160;2022-08-03T01:52:50;97015.38;;;20.58;88.37
13594;BME280;6449;47.666;9.160;2022-08-03T01:57:48;97009.81;;;20.68;86.85
13594;BME280;6449;47.666;9.160;2022-08-03T02:02:59;97009.13;;;20.43;89.64
13594;BME280;6449;47.666;9.160;2022-08-03T02:07:55;97006.78;;;20.71;88.09
13594;BME280;6449;47.666;9.160;2022-08-03T02:12:49;97015.22;;;20.83;87.46
13594;BME280;6449;47.666;9.160;2022-08-03T02:17:46;97009.34;;;20.87;87.47
13594;BME280;6449;47.666;9.160;2022-08-03T02:22:42;97016.06;;;20.83;87.00
13594;BME280;6449;47.666;9.160;2022-08-03T02:27:39;97010.53;;;20.62;88.27
13594;BME280;6449;47.666;9.160;2022-08-03T02:32:38;97003.41;;;20.54;89.32
13594;BME280;6449;47.666;9.160;2022-08-03T02:37:41;97004.94;;;20.49;89.44
13594;BME280;6449;47.666;9.160;2022-08-03T02:42:42;96994.72;;;20.60;89.00
13594;BME280;6449;47.666;9.160;2022-08-03T02:47:39;96990.41;;;20.59;88.69
13594;BME280;6449;47.666;9.160;2022-08-03T02:52:48;96992.88;;;20.61;88.10
13594;BME280;6449;47.666;9.160;2022-08-03T02:57:45;96992.88;;;20.61;87.70
13594;BME280;6449;47.666;9.160;2022-08-03T03:02:40;96995.31;;;20.39;88.46
13594;BME280;6449;47.666;9.160;2022-08-03T03:07:37;96998.06;;;20.23;90.07
13594;BME280;6449;47.666;9.160;2022-08-03T03:12:45;96994.69;;;20.29;90.22
13594;BME280;6449;47.666;9.160;2022-08-03T03:17:42;96992.53;;;20.33;89.43
13594;BME280;6449;47.666;9.160;2022-08-03T03:22:37;96994.41;;;20.24;89.20
13594;BME280;6449;47.666;9.160;2022-08-03T03:27:36;97004.09;;;20.17;90.23
13594;BME280;6449;47.666;9.160;2022-08-03T03:32:31;97002.31;;;20.09;90.99
13594;BME280;6449;47.666;9.160;2022-08-03T03:37:25;97008.22;;;19.88;91.33
13594;BME280;6449;47.666;9.160;2022-08-03T03:42:19;97010.56;;;19.83;91.55
13594;BME280;6449;47.666;9.160;2022-08-03T03:47:13;97022.53;;;19.79;93.03
13594;BME280;6449;47.666;9.160;2022-08-03T03:52:09;97014.53;;;19.87;92.30
13594;BME280;6449;47.666;9.160;2022-08-03T03:57:03;97022.16;;;19.99;91.62
13594;BME280;6449;47.666;9.160;2022-08-03T04:01:57;97017.19;;;19.87;91.72
13594;BME280;6449;47.666;9.160;2022-08-03T04:06:50;97026.78;;;19.97;91.19
13594;BME280;6449;47.666;9.160;2022-08-03T04:12:05;97022.16;;;19.91;91.49
13594;BME280;6449;47.666;9.160;2022-08-03T04:17:03;97014.19;;;19.91;91.15
13594;BME280;6449;47.666;9.160;2022-08-03T04:22:03;97021.31;;;19.98;90.91
13594;BME280;6449;47.666;9.160;2022-08-03T04:26:59;97016.13;;;20.05;90.38
13594;BME280;6449;47.666;9.160;2022-08-03T04:31:59;97020.00;;;19.94;91.02
13594;BME280;6449;47.666;9.160;2022-08-03T04:36:59;97019.13;;;20.02;91.01
13594;BME280;6449;47.666;9.160;2022-08-03T04:41:57;97024.13;;;20.05;91.01
13594;BME280;6449;47.666;9.160;2022-08-03T04:47:01;97023.91;;;20.14;90.92
13594;BME280;6449;47.666;9.160;2022-08-03T04:51:55;97032.66;;;20.31;90.96
13594;BME280;6449;47.666;9.160;2022-08-03T04:56:48;97040.88;;;20.53;91.14
13594;BME280;6449;47.666;9.160;2022-08-03T05:01:42;97044.41;;;20.76;90.07
13594;BME280;6449;47.666;9.160;2022-08-03T05:06:37;97043.13;;;20.95;89.98
13594;BME280;6449;47.666;9.160;2022-08-03T05:11:39;97048.84;;;21.07;90.08
13594;BME280;6449;47.666;9.160;2022-08-03T05:16:32;97045.84;;;21.33;89.38
13594;BME280;6449;47.666;9.160;2022-08-03T05:21:26;97043.00;;;21.34;89.96
13594;BME280;6449;47.666;9.160;2022-08-03T05:26:40;97048.25;;;21.42;90.03
13594;BME280;6449;47.666;9.160;2022-08-03T05:31:34;97056.56;;;21.48;90.93
13594;BME280;6449;47.666;9.160;2022-08-03T05:36:27;97054.91;;;21.47;91.84
13594;BME280;6449;47.666;9.160;2022-08-03T05:41:20;97061.25;;;21.60;92.51
13594;BME280;6449;47.666;9.160;2022-08-03T05:46:29;97057.59;;;21.76;92.10
13594;BME280;6449;47.666;9.160;2022-08-03T05:51:23;97059.72;;;21.81;92.90
13594;BME280;6449;47.666;9.160;2022-08-03T05:56:16;97055.84;;;21.83;92.42
13594;BME280;6449;47.666;9.160;2022-08-03T06:01:09;97055.03;;;21.97;91.08
13594;BME280;6449;47.666;9.160;2022-08-03T06:06:05;97049.50;;;21.99;88.63
13594;BME280;6449;47.666;9.160;2022-08-03T06:10:58;97059.34;;;21.98;90.11
13594;BME280;6449;47.666;9.160;2022-08-03T06:15:52;97057.81;;;21.89;91.80
13594;BME280;6449;47.666;9.160;2022-08-03T06:20:45;97052.75;;;21.80;91.18
13594;BME280;6449;47.666;9.160;2022-08-03T06:25:42;97062.41;;;21.95;91.95
13594;BME280;6449;47.666;9.160;2022-08-03T06:30:35;97062.16;;;22.20;89.15
13594;BME280;6449;47.666;9.160;2022-08-03T06:35:29;97057.34;;;22.15;89.15
13594;BME280;6449;47.666;9.160;2022-08-03T06:40:23;97065.28;;;22.23;89.58
13594;BME280;6449;47.666;9.160;2022-08-03T06:45:22;97053.38;;;22.26;87.71
13594;BME280;6449;47.666;9.160;2022-08-03T06:50:17;97061.03;;;22.29;90.32
13594;BME280;6449;47.666;9.160;2022-08-03T06:55:17;97064.53;;;22.30;89.23
13594;BME280;6449;47.666;9.160;2022-08-03T07:00:12;97063.25;;;22.26;88.45
13594;BME280;6449;47.666;9.160;2022-08-03T07:05:08;97071.38;;;22.32;89.80
13594;BME280;6449;47.666;9.160;2022-08-03T07:10:02;97070.63;;;22.38;89.03
13594;BME280;6449;47.666;9.160;2022-08-03T07:14:58;97074.88;;;22.69;85.58
13594;BME280;6449;47.666;9.160;2022-08-03T07:19:54;97070.59;;;22.89;88.06
13594;BME280;6449;47.666;9.160;2022-08-03T07:24:49;97063.16;;;23.06;85.38
13594;BME280;6449;47.666;9.160;2022-08-03T07:29:42;97064.75;;;23.43;81.94
13594;BME280;6449;47.666;9.160;2022-08-03T07:34:36;97059.13;;;23.60;81.23
13594;BME280;6449;47.666;9.160;2022-08-03T07:39:29;97059.88;;;24.03;80.51
13594;BME280;6449;47.666;9.160;2022-08-03T07:44:24;97065.25;;;24.44;77.50
13594;BME280;6449;47.666;9.160;2022-08-03T07:49:18;97056.47;;;24.70;74.06
13594;BME280;6449;47.666;9.160;2022-08-03T07:54:11;97056.38;;;24.98;72.80
13594;BME280;6449;47.666;9.160;2022-08-03T07:59:05;97053.94;;;25.17;68.55
13594;BME280;6449;47.666;9.160;2022-08-03T08:04:00;97063.06;;;25.36;67.86
13594;BME280;6449;47.666;9.160;2022-08-03T08:08:54;97053.34;;;25.41;67.98
13594;BME280;6449;47.666;9.160;2022-08-03T08:13:51;97049.81;;;25.60;67.12
13594;BME280;6449;47.666;9.160;2022-08-03T08:18:45;97052.09;;;25.64;66.72
13594;BME280;6449;47.666;9.160;2022-08-03T08:23:40;97054.56;;;25.92;65.44
13594;BME280;6449;47.666;9.160;2022-08-03T08:28:45;97045.38;;;26.26;65.50
13594;BME280;6449;47.666;9.160;2022-08-03T08:33:39;97046.97;;;26.47;62.61
13594;BME280;6449;47.666;9.160;2022-08-03T08:38:54;97049.91;;;26.45;62.28
13594;BME280;6449;47.666;9.160;2022-08-03T08:43:47;97045.84;;;26.68;62.21
13594;BME280;6449;47.666;9.160;2022-08-03T08:48:43;97045.69;;;26.62;60.82
13594;BME280;6449;47.666;9.160;2022-08-03T08:53:40;97043.13;;;26.81;60.32
13594;BME280;6449;47.666;9.160;2022-08-03T08:58:46;97036.34;;;27.03;58.37
13594;BME280;6449;47.666;9.160;2022-08-03T09:03:43;97037.72;;;27.19;58.46
13594;BME280;6449;47.666;9.160;2022-08-03T09:08:36;97040.31;;;27.32;57.45
13594;BME280;6449;47.666;9.160;2022-08-03T09:13:31;97041.38;;;27.56;57.59
13594;BME280;6449;47.666;9.160;2022-08-03T09:18:29;97039.91;;;27.60;57.70
13594;BME280;6449;47.666;9.160;2022-08-03T09:23:24;97030.47;;;27.69;56.82
13594;BME280;6449;47.666;9.160;2022-08-03T09:28:38;97033.06;;;27.83;55.68
13594;BME280;6449;47.666;9.160;2022-08-03T09:33:54;97033.91;;;28.02;56.03
13594;BME280;6449;47.666;9.160;2022-08-03T09:39:01;97034.75;;;28.20;55.45
13594;BME280;6449;47.666;9.160;2022-08-03T09:43:56;97035.97;;;28.25;54.42
13594;BME280;6449;47.666;9.160;2022-08-03T09:48:51;97035.81;;;28.38;53.88
13594;BME280;6449;47.666;9.160;2022-08-03T09:53:45;97027.09;;;28.73;53.90
13594;BME280;6449;47.666;9.160;2022-08-03T09:58:50;97024.00;;;28.87;53.67
13594;BME280;6449;47.666;9.160;2022-08-03T10:03:58;97008.44;;;29.01;50.89
13594;BME280;6449;47.666;9.160;2022-08-03T10:09:06;97014.09;;;29.11;52.26
13594;BME280;6449;47.666;9.160;2022-08-03T10:14:01;97011.97;;;29.13;51.25
13594;BME280;6449;47.666;9.160;2022-08-03T10:18:55;97001.66;;;29.10;50.95
13594;BME280;6449;47.666;9.160;2022-08-03T10:23:52;97004.50;;;29.15;49.30
13594;BME280;6449;47.666;9.160;2022-08-03T10:28:52;96998.84;;;29.29;48.24
13594;BME280;6449;47.666;9.160;2022-08-03T10:33:50;96995.53;;;29.57;47.59
13594;BME280;6449;47.666;9.160;2022-08-03T10:38:47;96992.69;;;29.52;48.33
13594;BME280;6449;47.666;9.160;2022-08-03T10:43:54;96988.69;;;29.66;48.38
13594;BME280;6449;47.666;9.160;2022-08-03T10:48:49;96988.81;;;29.71;48.87
13594;BME280;6449;47.666;9.160;2022-08-03T10:53:44;96972.25;;;29.79;46.95
13594;BME280;6449;47.666;9.160;2022-08-03T10:58:50;96975.88;;;29.85;44.75
13594;BME280;6449;47.666;9.160;2022-08-03T11:04:14;96955.44;;;29.89;44.17
13594;BME280;6449;47.666;9.160;2022-08-03T11:09:17;96952.00;;;30.05;42.94
13594;BME280;6449;47.666;9.160;2022-08-03T11:14:17;96950.84;;;29.89;42.83
13594;BME280;6449;47.666;9.160;2022-08-03T11:19:13;96951.28;;;30.10;41.96
13594;BME280;6449;47.666;9.160;2022-08-03T11:24:07;96937.88;;;30.15;41.83
13594;BME280;6449;47.666;9.160;2022-08-03T11:29:30;96935.97;;;30.56;40.36
13594;BME280;6449;47.666;9.160;2022-08-03T11:34:23;96927.13;;;30.60;40.38
13594;BME280;6449;47.666;9.160;2022-08-03T11:39:17;96935.03;;;30.50;39.47
13594;BME280;6449;47.666;9.160;2022-08-03T11:44:40;96929.97;;;30.53;39.70
13594;BME280;6449;47.666;9.160;2022-08-03T11:49:39;96931.00;;;30.64;39.38
13594;BME280;6449;47.666;9.160;2022-08-03T11:54:32;96918.56;;;30.51;39.80
13594;BME280;6449;47.666;9.160;2022-08-03T11:59:31;96905.00;;;30.35;38.25
13594;BME280;6449;47.666;9.160;2022-08-03T12:04:26;96906.59;;;30.47;39.03
13594;BME280;6449;47.666;9.160;2022-08-03T12:09:20;96909.94;;;30.38;39.53
13594;BME280;6449;47.666;9.160;2022-08-03T12:14:16;96904.69;;;30.19;38.36
13594;BME280;6449;47.666;9.160;2022-08-03T12:19:42;96898.31;;;30.25;37.86
13594;BME280;6449;47.666;9.160;2022-08-03T12:24:40;96874.91;;;30.31;34.31
13594;BME280;6449;47.666;9.160;2022-08-03T12:29:34;96879.38;;;30.54;34.40
13594;BME280;6449;47.666;9.160;2022-08-03T12:34:47;96873.56;;;30.62;34.48
13594;BME280;6449;47.666;9.160;2022-08-03T12:39:41;96867.31;;;30.62;34.41
13594;BME280;6449;47.666;9.160;2022-08-03T12:44:54;96861.69;;;30.63;33.04
13594;BME280;6449;47.666;9.160;2022-08-03T12:49:51;96826.81;;;30.67;27.46
13594;BME280;6449;47.666;9.160;2022-08-03T12:54:53;96830.84;;;30.64;27.51
13594;BME280;6449;47.666;9.160;2022-08-03T12:59:47;96839.25;;;30.68;29.01
13594;BME280;6449;47.666;9.160;2022-08-03T13:04:46;96851.41;;;30.65;29.72
13594;BME280;6449;47.666;9.160;2022-08-03T13:09:43;96854.50;;;30.57;30.96
13594;BME280;6449;47.666;9.160;2022-08-03T13:14:37;96860.09;;;30.79;32.93
13594;BME280;6449;47.666;9.160;2022-08-03T13:19:31;96851.13;;;30.78;32.47
13594;BME280;6449;47.666;9.160;2022-08-03T13:24:24;96857.19;;;30.69;33.88
13594;BME280;6449;47.666;9.160;2022-08-03T13:29:19;96856.84;;;30.65;33.64
13594;BME280;6449;47.666;9.160;2022-08-03T13:34:12;96846.00;;;30.65;33.70
13594;BME280;6449;47.666;9.160;2022-08-03T13:39:05;96845.34;;;30.58;34.40
13594;BME280;6449;47.666;9.160;2022-08-03T13:44:00;96845.84;;;30.55;36.43
13594;BME280;6449;47.666;9.160;2022-08-03T13:49:14;96838.69;;;30.66;34.88
13594;BME280;6449;47.666;9.160;2022-08-03T13:54:08;96834.31;;;30.76;33.35
13594;BME280;6449;47.666;9.160;2022-08-03T13:59:01;96824.69;;;30.69;33.27
13594;BME280;6449;47.666;9.160;2022-08-03T14:03:55;96825.84;;;30.73;33.81
13594;BME280;6449;47.666;9.160;2022-08-03T14:08:50;96829.50;;;30.67;33.94
13594;BME280;6449;47.666;9.160;2022-08-03T14:13:47;96811.22;;;30.57;32.36
13594;BME280;6449;47.666;9.160;2022-08-03T14:18:41;96828.13;;;30.64;36.36
13594;BME280;6449;47.666;9.160;2022-08-03T14:23:35;96823.53;;;30.65;35.77
13594;BME280;6449;47.666;9.160;2022-08-03T14:28:31;96816.16;;;30.60;35.42
13594;BME280;6449;47.666;9.160;2022-08-03T14:33:24;96826.50;;;30.63;36.30
13594;BME280;6449;47.666;9.160;2022-08-03T14:38:20;96809.28;;;30.52;34.06
13594;BME280;6449;47.666;9.160;2022-08-03T14:43:14;96819.84;;;30.54;37.08
13594;BME280;6449;47.666;9.160;2022-08-03T14:48:10;96807.47;;;30.58;36.90
13594;BME280;6449;47.666;9.160;2022-08-03T14:53:24;96821.13;;;30.51;37.22
13594;BME280;6449;47.666;9.160;2022-08-03T14:58:17;96807.13;;;30.55;37.45
13594;BME280;6449;47.666;9.160;2022-08-03T15:03:14;96808.75;;;30.56;38.97
13594;BME280;6449;47.666;9.160;2022-08-03T15:08:08;96797.13;;;30.55;38.04
13594;BME280;6449;47.666;9.160;2022-08-03T15:13:01;96790.56;;;30.51;36.55
13594;BME280;6449;47.666;9.160;2022-08-03T15:17:54;96788.09;;;30.49;37.39
13594;BME280;6449;47.666;9.160;2022-08-03T15:22:52;96781.22;;;30.42;35.03
13594;BME280;6449;47.666;9.160;2022-08-03T15:27:54;96773.75;;;30.49;35.67
13594;BME280;6449;47.666;9.160;2022-08-03T15:32:55;96757.16;;;30.62;34.46
13594;BME280;6449;47.666;9.160;2022-08-03T15:37:48;96763.16;;;30.64;35.29
13594;BME280;6449;47.666;9.160;2022-08-03T15:42:43;96759.13;;;30.67;34.71
13594;BME280;6449;47.666;9.160;2022-08-03T15:47:36;96764.72;;;30.60;36.88
13594;BME280;6449;47.666;9.160;2022-08-03T15:52:30;96768.75;;;30.58;37.98
13594;BME280;6449;47.666;9.160;2022-08-03T15:57:23;96759.72;;;30.52;37.80
13594;BME280;6449;47.666;9.160;2022-08-03T16:02:18;96759.16;;;30.50;38.50
13594;BME280;6449;47.666;9.160;2022-08-03T16:07:12;96747.69;;;30.43;37.55
13594;BME280;6449;47.666;9.160;2022-08-03T16:12:07;96762.28;;;30.42;39.74
13594;BME280;6449;47.666;9.160;2022-08-03T16:17:07;96743.25;;;30.37;38.33
13594;BME280;6449;47.666;9.160;2022-08-03T16:22:02;96749.72;;;30.36;40.70
13594;BME280;6449;47.666;9.160;2022-08-03T16:26:55;96748.34;;;30.33;40.07
13594;BME280;6449;47.666;9.160;2022-08-03T16:31:51;96755.03;;;30.31;41.43
13594;BME280;6449;47.666;9.160;2022-08-03T16:36:44;96754.88;;;30.20;41.53
13594;BME280;6449;47.666;9.160;2022-08-03T16:41:40;96753.38;;;30.13;42.65
13594;BME280;6449;47.666;9.160;2022-08-03T16:46:51;96752.94;;;30.04;43.07
13594;BME280;6449;47.666;9.160;2022-08-03T16:51:45;96743.03;;;30.10;40.35
13594;BME280;6449;47.666;9.160;2022-08-03T16:56:42;96740.53;;;30.20;39.01
13594;BME280;6449;47.666;9.160;2022-08-03T17:01:39;96733.25;;;30.20;38.38
13594;BME280;6449;47.666;9.160;2022-08-03T17:06:40;96734.38;;;30.24;37.59
13594;BME280;6449;47.666;9.160;2022-08-03T17:11:41;96733.31;;;30.25;39.37
13594;BME280;6449;47.666;9.160;2022-08-03T17:16:39;96728.91;;;30.36;38.20
13594;BME280;6449;47.666;9.160;2022-08-03T17:21:50;96737.50;;;30.33;39.14
13594;BME280;6449;47.666;9.160;2022-08-03T17:26:52;96733.56;;;30.24;38.30
13594;BME280;6449;47.666;9.160;2022-08-03T17:31:48;96743.47;;;30.18;39.03
13594;BME280;6449;47.666;9.160;2022-08-03T17:36:44;96747.38;;;30.11;41.00
13594;BME280;6449;47.666;9.160;2022-08-03T17:41:58;96730.81;;;30.07;38.20
13594;BME280;6449;47.666;9.160;2022-08-03T17:46:52;96737.03;;;29.91;37.82
13594;BME280;6449;47.666;9.160;2022-08-03T17:51:55;96748.97;;;29.78;38.95
13594;BME280;6449;47.666;9.160;2022-08-03T17:57:04;96765.91;;;29.73;41.14
13594;BME280;6449;47.666;9.160;2022-08-03T18:02:35;96777.00;;;29.48;42.48
13594;BME280;6449;47.666;9.160;2022-08-03T18:07:50;96778.88;;;29.48;43.77
13594;BME280;6449;47.666;9.160;2022-08-03T18:13:00;96781.22;;;29.44;43.62
13594;BME280;6449;47.666;9.160;2022-08-03T18:18:05;96782.03;;;29.45;44.24
13594;BME280;6449;47.666;9.160;2022-08-03T18:23:03;96789.38;;;29.33;44.12
13594;BME280;6449;47.666;9.160;2022-08-03T18:27:58;96779.50;;;29.27;42.83
13594;BME280;6449;47.666;9.160;2022-08-03T18:32:52;96779.31;;;28.93;44.82
13594;BME280;6449;47.666;9.160;2022-08-03T18:37:53;96781.41;;;28.67;45.49
13594;BME280;6449;47.666;9.160;2022-08-03T18:42:51;96787.50;;;28.51;46.25
13594;BME280;6449;47.666;9.160;2022-08-03T18:47:56;96786.94;;;28.31;47.79
13594;BME280;6449;47.666;9.160;2022-08-03T18:53:06;96796.38;;;28.10;49.23
13594;BME280;6449;47.666;9.160;2022-08-03T18:58:34;96790.88;;;28.05;50.45
13594;BME280;6449;47.666;9.160;2022-08-03T19:03:35;96797.19;;;27.99;51.92
13594;BME280;6449;47.666;9.160;2022-08-03T19:08:45;96805.22;;;27.87;53.25
13594;BME280;6449;47.666;9.160;2022-08-03T19:13:47;96807.41;;;27.60;53.96
13594;BME280;6449;47.666;9.160;2022-08-03T19:18:48;96802.69;;;27.55;54.27
13594;BME280;6449;47.666;9.160;2022-08-03T19:23:45;96810.97;;;27.54;56.05
13594;BME280;6449;47.666;9.160;2022-08-03T19:28:40;96824.31;;;27.30;58.47
13594;BME280;6449;47.666;9.160;2022-08-03T19:33:34;96827.84;;;27.06;59.80
13594;BME280;6449;47.666;9.160;2022-08-03T19:38:51;96827.16;;;26.92;59.09
13594;BME280;6449;47.666;9.160;2022-08-03T19:43:51;96826.28;;;26.98;57.36
13594;BME280;6449;47.666;9.160;2022-08-03T19:48:55;96834.50;;;27.03;57.53
13594;BME280;6449;47.666;9.160;2022-08-03T19:53:53;96827.47;;;27.02;59.72
13594;BME280;6449;47.666;9.160;2022-08-03T19:58:47;96833.94;;;26.95;62.09
13594;BME280;6449;47.666;9.160;2022-08-03T20:03:45;96832.94;;;26.96;64.14
13594;BME280;6449;47.666;9.160;2022-08-03T20:08:41;96837.47;;;26.95;65.44
13594;BME280;6449;47.666;9.160;2022-08-03T20:13:37;96838.75;;;26.43;67.18
13594;BME280;6449;47.666;9.160;2022-08-03T20:18:32;96835.59;;;26.46;67.21
13594;BME280;6449;47.666;9.160;2022-08-03T20:23:34;96836.69;;;26.38;69.72
13594;BME280;6449;47.666;9.160;2022-08-03T20:28:57;96831.03;;;26.15;70.75
13594;BME280;6449;47.666;9.160;2022-08-03T20:34:00;96836.03;;;26.04;72.50
13594;BME280;6449;47.666;9.160;2022-08-03T20:38:53;96838.50;;;26.12;72.96
13594;BME280;6449;47.666;9.160;2022-08-03T20:43:50;96837.06;;;26.10;72.82
13594;BME280;6449;47.666;9.160;2022-08-03T20:48:44;96826.56;;;26.02;70.80
13594;BME280;6449;47.666;9.160;2022-08-03T20:53:39;96833.41;;;25.98;68.77
13594;BME280;6449;47.666;9.160;2022-08-03T20:58:55;96832.66;;;25.84;67.35
13594;BME280;6449;47.666;9.160;2022-08-03T21:03:50;96832.69;;;25.77;67.22
13594;BME280;6449;47.666;9.160;2022-08-03T21:08:51;96830.84;;;25.65;67.04
13594;BME280;6449;47.666;9.160;2022-08-03T21:13:55;96832.28;;;25.67;65.34
13594;BME280;6449;47.666;9.160;2022-08-03T21:18:53;96834.38;;;25.58;62.69
13594;BME280;6449;47.666;9.160;2022-08-03T21:23:51;96839.75;;;25.58;61.31
13594;BME280;6449;47.666;9.160;2022-08-03T21:28:46;96828.88;;;25.40;60.19
13594;BME280;6449;47.666;9.160;2022-08-03T21:33:41;96831.34;;;25.35;59.95
13594;BME280;6449;47.666;9.160;2022-08-03T21:38:39;96820.66;;;25.28;59.26
13594;BME280;6449;47.666;9.160;2022-08-03T21:43:38;96816.56;;;25.13;60.92
13594;BME280;6449;47.666;9.160;2022-08-03T21:48:37;96826.69;;;25.04;59.81
13594;BME280;6449;47.666;9.160;2022-08-03T21:53:33;96817.19;;;25.15;59.30
13594;BME280;6449;47.666;9.160;2022-08-03T21:58:52;96825.22;;;25.01;59.81
13594;BME280;6449;47.666;9.160;2022-08-03T22:03:45;96825.03;;;24.96;59.48
13594;BME280;6449;47.666;9.160;2022-08-03T22:08:47;96822.16;;;24.71;60.03
13594;BME280;6449;47.666;9.160;2022-08-03T22:13:41;96840.91;;;24.71;60.56
13594;BME280;6449;47.666;9.160;2022-08-03T22:18:36;96838.44;;;24.90;60.33
13594;BME280;6449;47.666;9.160;2022-08-03T22:23:30;96833.09;;;24.83;61.13
13594;BME280;6449;47.666;9.160;2022-08-03T22:28:30;96847.31;;;24.44;61.91
13594;BME280;6449;47.666;9.160;2022-08-03T22:33:26;96846.69;;;24.48;63.47
13594;BME280;6449;47.666;9.160;2022-08-03T22:38:20;96853.28;;;24.39;64.03
13594;BME280;6449;47.666;9.160;2022-08-03T22:43:14;96843.78;;;24.30;62.27
13594;BME280;6449;47.666;9.160;2022-08-03T22:48:10;96845.06;;;24.47;61.20
13594;BME280;6449;47.666;9.160;2022-08-03T22:53:06;96844.66;;;24.57;61.61
13594;BME280;6449;47.666;9.160;2022-08-03T22:57:59;96858.03;;;24.37;62.00
13594;BME280;6449;47.666;9.160;2022-08-03T23:03:05;96856.06;;;23.98;61.88
13594;BME280;6449;47.666;9.160;2022-08-03T23:08:04;96858.97;;;24.10;63.26
13594;BME280;6449;47.666;9.160;2022-08-03T23:13:11;96859.81;;;24.17;63.78
13594;BME280;6449;47.666;9.160;2022-08-03T23:18:07;96863.44;;;23.89;63.87
13594;BME280;6449;47.666;9.160;2022-08-03T23:23:07;96867.28;;;23.67;65.33
13594;BME280;6449;47.666;9.160;2022-08-03T23:28:14;96871.22;;;23.71;64.97
13594;BME280;6449;47.666;9.160;2022-08-03T23:33:11;96867.19;;;23.53;65.82
13594;BME280;6449;47.666;9.160;2022-08-03T23:38:07;96863.13;;;23.23;67.26
13594;BME280;6449;47.666;9.160;2022-08-03T23:43:14;96857.44;;;23.39;68.05
13594;BME280;6449;47.666;9.160;2022-08-03T23:48:28;96869.16;;;23.38;67.54
13594;BME280;6449;47.666;9.160;2022-08-03T23:53:29;96865.56;;;23.18;68.90
13594;BME280;6449;47.666;9.160;2022-08-03T23:58:47;96857.03;;;23.42;68.55
